Time;durP1;ratioP1;P1;durP2;ratioP2;P2;SDS_P1;SDS_P2;PMS_P1;PMS_P2;Temp;Humidity;BMP_temperature;BMP_pressure;BME280_temperature;BME280_humidity;BME280_pressure;Samples;Min_cycle;Max_cycle;Signal;HPM_P1;HPM_P2
2024/02/28 00:00:10;;;;;;;32.97;30.63;;;;;;;3.98;100.00;101609.56;5028830;28;20056;-72
2024/02/28 00:02:40;;;;;;;29.58;27.98;;;;;;;3.60;100.00;101597.28;5024343;28;20058;-72
2024/02/28 00:05:12;;;;;;;31.80;30.20;;;;;;;3.72;100.00;101605.88;5024227;28;20057;-72
2024/02/28 00:07:39;;;;;;;33.97;32.08;;;;;;;3.17;100.00;101604.59;5022468;28;20065;-71
2024/02/28 00:10:10;;;;;;;34.65;32.45;;;;;;;3.14;100.00;101598.78;5020954;28;20101;-71
2024/02/28 00:12:37;;;;;;;40.22;37.65;;;;;;;3.31;100.00;101603.38;5020762;28;20049;-71
2024/02/28 00:15:10;;;;;;;42.88;40.25;;;;;;;3.09;100.00;101607.06;5018693;28;20049;-71
2024/02/28 00:17:39;;;;;;;36.22;34.13;;;;;;;3.28;100.00;101602.81;5026998;28;20096;-71
2024/02/28 00:20:09;;;;;;;33.10;31.10;;;;;;;3.14;100.00;101601.41;5020489;28;20772;-71
2024/02/28 00:22:38;;;;;;;33.42;31.27;;;;;;;3.27;100.00;101606.41;5027621;28;20641;-71
2024/02/28 00:25:06;;;;;;;32.40;30.50;;;;;;;2.65;100.00;101611.78;5021589;28;20140;-70
2024/02/28 00:27:33;;;;;;;33.47;31.27;;;;;;;2.93;100.00;101606.75;5027165;28;20127;-71
2024/02/28 00:30:00;;;;;;;31.65;29.75;;;;;;;3.06;100.00;101614.41;5026037;28;20049;-71
2024/02/28 00:32:30;;;;;;;31.98;30.08;;;;;;;2.77;100.00;101598.56;5033248;28;20402;-71
2024/02/28 00:34:57;;;;;;;33.17;30.13;;;;;;;2.70;100.00;101609.59;5041067;28;20065;-71
2024/02/28 00:37:25;;;;;;;28.10;26.30;;;;;;;2.66;100.00;101613.44;5026705;28;20064;-71
2024/02/28 00:39:52;;;;;;;28.42;26.60;;;;;;;2.48;100.00;101612.38;5034170;28;20049;-72
2024/02/28 00:42:19;;;;;;;28.38;26.58;;;;;;;2.87;100.00;101610.72;5021273;28;20493;-71
2024/02/28 00:44:46;;;;;;;30.08;28.20;;;;;;;2.90;100.00;101615.72;5035248;28;20131;-72
2024/02/28 00:47:13;;;;;;;28.98;27.10;;;;;;;2.53;100.00;101611.03;5025648;28;20053;-72
2024/02/28 00:49:40;;;;;;;30.13;28.17;;;;;;;2.84;100.00;101613.63;5026767;28;20544;-71
2024/02/28 00:52:07;;;;;;;28.15;26.35;;;;;;;2.75;100.00;101611.81;5022747;28;20057;-72
2024/02/28 00:54:35;;;;;;;30.23;28.33;;;;;;;2.78;100.00;101613.34;5018167;28;20521;-72
2024/02/28 00:57:02;;;;;;;28.90;27.00;;;;;;;2.75;100.00;101607.41;5041490;28;20077;-72
2024/02/28 00:59:29;;;;;;;30.88;28.98;;;;;;;2.77;100.00;101602.00;5022097;28;20077;-72
2024/02/28 01:01:56;;;;;;;32.00;29.83;;;;;;;2.49;100.00;101601.78;5027824;28;20428;-71
2024/02/28 01:04:23;;;;;;;28.60;27.00;;;;;;;2.44;100.00;101598.72;5020983;28;20792;-72
2024/02/28 01:06:50;;;;;;;29.50;27.80;;;;;;;2.28;100.00;101601.00;5027104;28;20061;-72
2024/02/28 01:09:17;;;;;;;28.08;26.42;;;;;;;2.17;100.00;101594.00;5029358;28;20134;-72
2024/02/28 01:11:46;;;;;;;31.35;29.45;;;;;;;2.28;100.00;101601.00;5024885;28;20580;-71
2024/02/28 01:14:13;;;;;;;35.92;33.83;;;;;;;2.19;100.00;101601.75;5016294;28;20079;-72
2024/02/28 01:16:41;;;;;;;33.13;31.13;;;;;;;2.10;100.00;101592.06;5036198;28;20049;-72
2024/02/28 01:19:08;;;;;;;28.50;26.77;;;;;;;2.23;100.00;101590.88;5041674;28;20467;-72
2024/02/28 01:21:35;;;;;;;29.77;28.00;;;;;;;2.28;100.00;101583.47;5039182;28;20065;-72
2024/02/28 01:24:02;;;;;;;32.28;30.27;;;;;;;2.42;100.00;101597.16;5021325;28;20075;-71
2024/02/28 01:26:29;;;;;;;33.67;31.77;;;;;;;2.45;100.00;101586.41;5022841;28;20150;-72
2024/02/28 01:28:58;;;;;;;32.55;30.45;;;;;;;1.78;100.00;101587.69;5030327;28;20052;-71
2024/02/28 01:31:24;;;;;;;52.17;48.38;;;;;;;1.83;100.00;101590.78;5026509;28;20539;-72
2024/02/28 01:33:51;;;;;;;46.03;42.63;;;;;;;2.19;100.00;101593.91;5026487;28;20168;-71
2024/02/28 01:36:18;;;;;;;41.10;38.47;;;;;;;2.12;100.00;101593.59;5027553;28;20055;-71
2024/02/28 01:38:45;;;;;;;53.03;49.75;;;;;;;2.13;100.00;101591.81;5024992;28;20509;-71
2024/02/28 01:41:12;;;;;;;56.13;52.72;;;;;;;1.84;100.00;101601.13;5025490;28;20053;-71
2024/02/28 01:43:42;;;;;;;46.80;44.00;;;;;;;1.99;100.00;101606.88;5029010;28;20054;-70
2024/02/28 01:46:23;;;;;;;50.47;47.42;;;;;;;1.65;100.00;101614.09;5016869;28;20062;-71
2024/02/28 01:48:50;;;;;;;61.05;57.40;;;;;;;1.68;100.00;101616.44;5029699;28;20053;-71
2024/02/28 01:51:18;;;;;;;71.32;67.20;;;;;;;1.82;100.00;101613.53;5029958;28;20080;-71
2024/02/28 01:53:45;;;;;;;69.20;65.22;;;;;;;1.87;100.00;101609.69;5024194;28;20061;-71
2024/02/28 01:56:15;;;;;;;37.05;34.58;;;;;;;1.90;100.00;101612.88;5023980;28;20060;-71
2024/02/28 01:58:45;;;;;;;32.72;30.73;;;;;;;1.91;100.00;101619.81;5030317;28;20045;-71
2024/02/28 02:01:14;;;;;;;34.58;32.42;;;;;;;2.05;100.00;101616.84;5026036;28;20456;-71
2024/02/28 02:03:41;;;;;;;33.00;31.00;;;;;;;2.14;100.00;101612.63;5029134;28;20440;-71
2024/02/28 02:06:12;;;;;;;31.85;29.92;;;;;;;1.63;100.00;101615.97;5037425;28;20072;-71
2024/02/28 02:08:42;;;;;;;34.08;31.98;;;;;;;1.85;100.00;101607.22;5028866;28;20049;-71
2024/02/28 02:11:09;;;;;;;34.05;31.35;;;;;;;1.59;100.00;101618.03;5023778;28;20078;-70
2024/02/28 02:13:36;;;;;;;32.83;30.80;;;;;;;1.69;100.00;101615.47;5027095;28;20053;-71
2024/02/28 02:16:04;;;;;;;32.03;29.98;;;;;;;1.68;100.00;101613.84;5018690;28;20049;-71
2024/02/28 02:18:32;;;;;;;33.63;31.08;;;;;;;1.44;100.00;101616.66;5036847;28;20057;-71
2024/02/28 02:21:05;;;;;;;33.70;31.40;;;;;;;1.52;100.00;101629.16;5031374;28;20053;-71
2024/02/28 02:23:35;;;;;;;34.35;32.35;;;;;;;1.54;100.00;101620.22;5027972;28;20136;-70
2024/02/28 02:26:02;;;;;;;33.33;31.45;;;;;;;1.32;100.00;101625.50;5027433;28;20049;-71
2024/02/28 02:28:29;;;;;;;34.03;32.13;;;;;;;1.38;100.00;101617.16;5028669;28;20053;-71
2024/02/28 02:30:56;;;;;;;34.13;32.40;;;;;;;1.18;100.00;101621.41;5020566;28;20049;-71
2024/02/28 02:33:23;;;;;;;34.25;32.45;;;;;;;1.22;100.00;101628.03;5032795;28;20110;-71
2024/02/28 02:35:50;;;;;;;33.28;30.70;;;;;;;0.91;100.00;101635.69;5030456;28;20440;-71
2024/02/28 02:38:17;;;;;;;32.15;30.35;;;;;;;1.24;100.00;101633.13;5024531;28;20055;-71
2024/02/28 02:40:46;;;;;;;32.35;30.65;;;;;;;1.44;100.00;101634.16;5019768;28;20049;-71
2024/02/28 02:43:13;;;;;;;34.25;32.28;;;;;;;1.51;100.00;101646.66;5026262;28;20516;-71
2024/02/28 02:45:40;;;;;;;30.65;29.05;;;;;;;1.34;100.00;101640.13;5028837;28;20054;-71
2024/02/28 02:48:08;;;;;;;33.25;31.45;;;;;;;1.40;100.00;101640.63;5015017;28;20539;-71
2024/02/28 02:50:35;;;;;;;32.00;30.20;;;;;;;1.13;100.00;101645.28;5027478;28;20520;-72
2024/02/28 02:53:02;;;;;;;32.35;30.65;;;;;;;1.31;100.00;101650.03;5037146;28;20049;-72
2024/02/28 02:55:29;;;;;;;29.73;28.33;;;;;;;1.32;100.00;101649.06;5015565;28;20049;-72
2024/02/28 02:57:57;;;;;;;32.63;30.73;;;;;;;0.95;100.00;101656.38;5019748;28;20653;-71
2024/02/28 03:00:24;;;;;;;32.47;30.77;;;;;;;0.91;100.00;101656.63;5017213;28;20045;-71
2024/02/28 03:02:51;;;;;;;34.50;32.70;;;;;;;0.98;100.00;101654.34;5025658;28;20187;-71
2024/02/28 03:05:18;;;;;;;31.73;29.92;;;;;;;1.01;100.00;101661.97;5022325;28;20053;-72
2024/02/28 03:07:45;;;;;;;32.72;30.52;;;;;;;1.04;100.00;101668.75;5015960;28;20068;-72
2024/02/28 03:10:12;;;;;;;37.95;35.95;;;;;;;1.12;100.00;101667.19;5015235;28;20060;-71
2024/02/28 03:12:42;;;;;;;35.42;33.72;;;;;;;0.82;100.00;101665.19;5021383;28;20068;-71
2024/02/28 03:15:16;;;;;;;36.65;34.75;;;;;;;0.97;100.00;101672.78;5033627;28;20819;-71
2024/02/28 03:17:43;;;;;;;40.05;38.15;;;;;;;1.06;100.00;101677.28;5026070;28;20053;-71
2024/02/28 03:20:13;;;;;;;39.78;37.30;;;;;;;0.92;100.00;101673.16;5029126;28;20049;-71
2024/02/28 03:22:40;;;;;;;40.28;38.00;;;;;;;0.58;100.00;101675.75;5024351;28;20105;-72
2024/02/28 03:25:12;;;;;;;41.95;39.50;;;;;;;0.75;100.00;101674.44;5029735;28;20128;-71
2024/02/28 03:27:41;;;;;;;56.80;53.60;;;;;;;0.83;100.00;101681.72;5035635;28;20053;-72
2024/02/28 03:30:11;;;;;;;61.47;57.25;;;;;;;0.85;100.00;101679.81;5020790;28;20306;-72
2024/02/28 03:32:39;;;;;;;52.97;49.75;;;;;;;0.42;100.00;101676.09;5017582;28;20061;-71
2024/02/28 03:35:09;;;;;;;62.30;58.75;;;;;;;0.64;100.00;101687.53;5033462;28;20049;-72
2024/02/28 03:37:35;;;;;;;56.90;54.10;;;;;;;0.94;100.00;101694.81;5029268;28;20053;-72
2024/02/28 03:40:03;;;;;;;56.42;53.53;;;;;;;0.87;100.00;101690.97;5026215;28;20136;-72
2024/02/28 03:42:30;;;;;;;52.10;49.22;;;;;;;0.80;100.00;101689.81;5025626;28;20057;-72
2024/02/28 03:44:57;;;;;;;48.00;45.20;;;;;;;1.16;100.00;101695.75;5019087;28;20053;-71
2024/02/28 03:47:24;;;;;;;41.80;39.58;;;;;;;0.79;100.00;101688.16;5032539;28;20159;-72
2024/02/28 03:49:54;;;;;;;47.30;44.03;;;;;;;0.66;100.00;101694.28;5022399;28;20064;-72
2024/02/28 03:52:21;;;;;;;45.33;42.72;;;;;;;0.29;100.00;101696.25;5027486;28;20073;-72
2024/02/28 03:54:48;;;;;;;46.65;42.95;;;;;;;0.50;100.00;101695.59;5020435;28;20045;-72
2024/02/28 03:57:15;;;;;;;53.97;50.78;;;;;;;0.89;100.00;101700.38;5019988;28;20049;-71
2024/02/28 03:59:42;;;;;;;38.60;36.05;;;;;;;0.78;100.00;101696.94;5014981;28;20495;-71
2024/02/28 04:02:09;;;;;;;38.95;36.55;;;;;;;0.89;100.00;101696.94;5033092;28;20041;-71
2024/02/28 04:04:36;;;;;;;38.38;35.95;;;;;;;0.80;100.00;101701.09;5013580;28;20543;-72
2024/02/28 04:07:04;;;;;;;52.03;48.72;;;;;;;0.71;100.00;101707.03;5031056;28;20067;-72
2024/02/28 04:09:31;;;;;;;42.80;40.20;;;;;;;0.14;100.00;101702.63;5027426;28;20050;-71
2024/02/28 04:11:58;;;;;;;42.85;40.13;;;;;;;0.75;100.00;101712.84;5021493;28;20049;-71
2024/02/28 04:14:25;;;;;;;42.45;39.95;;;;;;;0.66;100.00;101706.53;5042445;28;20076;-71
2024/02/28 04:16:52;;;;;;;40.78;38.28;;;;;;;0.64;100.00;101711.06;5042505;28;20397;-71
2024/02/28 04:19:19;;;;;;;34.15;32.15;;;;;;;0.57;100.00;101717.69;5032003;28;20049;-71
2024/02/28 04:21:46;;;;;;;33.30;31.38;;;;;;;0.58;100.00;101711.53;5030234;28;20364;-70
2024/02/28 04:24:14;;;;;;;36.50;34.40;;;;;;;0.43;100.00;101714.34;5022093;28;20049;-71
2024/02/28 04:26:41;;;;;;;36.20;34.05;;;;;;;0.21;100.00;101711.66;5024573;28;20440;-71
2024/02/28 04:29:13;;;;;;;35.50;33.53;;;;;;;0.15;100.00;101719.97;5023103;28;20489;-71
2024/02/28 04:31:40;;;;;;;35.65;33.35;;;;;;;0.55;100.00;101724.84;5033604;28;20076;-71
2024/02/28 04:34:10;;;;;;;39.25;36.88;;;;;;;0.66;100.00;101733.50;5029365;28;20505;-72
2024/02/28 04:36:37;;;;;;;42.85;39.60;;;;;;;0.45;100.00;101724.69;5016275;28;20502;-72
2024/02/28 04:39:07;;;;;;;37.83;35.33;;;;;;;0.45;100.00;101727.28;5016648;28;20076;-72
2024/02/28 04:41:36;;;;;;;31.42;29.52;;;;;;;0.49;100.00;101725.31;5031393;28;20481;-71
2024/02/28 04:44:03;;;;;;;26.48;24.88;;;;;;;0.24;100.00;101727.13;5027716;28;20465;-72
2024/02/28 04:46:30;;;;;;;27.45;25.88;;;;;;;0.34;100.00;101729.91;5029716;28;20049;-72
2024/02/28 04:48:56;;;;;;;30.73;28.38;;;;;;;0.30;100.00;101733.66;5029557;28;20700;-71
2024/02/28 04:51:23;;;;;;;25.30;23.70;;;;;;;0.29;100.00;101735.47;5016344;28;20049;-72
2024/02/28 04:53:50;;;;;;;30.00;28.15;;;;;;;0.30;100.00;101737.09;5019800;28;20060;-71
2024/02/28 04:56:19;;;;;;;37.03;34.03;;;;;;;0.24;100.00;101737.56;5035816;28;20802;-71
2024/02/28 04:58:47;;;;;;;35.33;32.75;;;;;;;0.42;100.00;101745.81;5026540;28;20057;-72
2024/02/28 05:01:14;;;;;;;34.25;30.95;;;;;;;0.39;100.00;101738.22;5015668;28;20101;-72
2024/02/28 05:03:41;;;;;;;32.55;30.40;;;;;;;-0.05;100.00;101734.50;5021660;28;20131;-71
2024/02/28 05:06:08;;;;;;;33.63;30.98;;;;;;;0.33;100.00;101741.28;5031295;28;20061;-72
2024/02/28 05:08:37;;;;;;;34.08;31.80;;;;;;;0.38;100.00;101741.78;5020600;28;20709;-72
2024/02/28 05:11:04;;;;;;;35.28;33.10;;;;;;;0.26;100.00;101742.69;5029156;28;20143;-72
2024/02/28 05:13:31;;;;;;;36.33;33.85;;;;;;;0.43;100.00;101753.56;5021500;28;20132;-72
2024/02/28 05:16:00;;;;;;;34.20;32.00;;;;;;;0.51;100.00;101755.59;5021973;28;20045;-72
2024/02/28 05:18:30;;;;;;;32.28;30.27;;;;;;;0.50;100.00;101753.94;5036093;28;20738;-75
2024/02/28 05:20:57;;;;;;;42.25;39.25;;;;;;;8.02;100.00;101760.34;5026975;28;20057;-73
2024/02/28 05:23:24;;;;;;;35.72;33.42;;;;;;;2.92;100.00;101758.13;5021965;28;20053;-72
2024/02/28 05:25:52;;;;;;;33.75;31.85;;;;;;;0.64;100.00;101758.97;5026849;28;20624;-72
2024/02/28 05:28:22;;;;;;;34.67;32.65;;;;;;;0.87;100.00;101756.38;5028435;28;20057;-69
2024/02/28 05:30:49;;;;;;;34.42;32.28;;;;;;;0.74;100.00;101758.28;5025877;28;20084;-69
2024/02/28 05:33:17;;;;;;;28.38;26.67;;;;;;;0.57;100.00;101765.59;5026238;28;20049;-69
2024/02/28 05:35:44;;;;;;;28.52;26.50;;;;;;;0.43;100.00;101766.63;5021118;28;20485;-69
2024/02/28 05:38:11;;;;;;;28.73;27.00;;;;;;;0.45;100.00;101769.13;5027649;28;20054;-69
2024/02/28 05:40:39;;;;;;;28.92;27.23;;;;;;;0.58;100.00;101769.06;5023400;28;20057;-68
2024/02/28 05:43:06;;;;;;;30.90;28.92;;;;;;;0.81;100.00;101780.38;5024828;28;20059;-72
2024/02/28 05:45:33;;;;;;;28.23;26.33;;;;;;;0.78;100.00;101780.63;5034490;28;20049;-72
2024/02/28 05:48:00;;;;;;;26.27;24.67;;;;;;;1.08;100.00;101773.03;5034279;28;20060;-71
2024/02/28 05:50:29;;;;;;;28.88;26.83;;;;;;;1.10;100.00;101768.53;5032490;28;20054;-71
2024/02/28 05:52:56;;;;;;;27.63;26.02;;;;;;;1.28;100.00;101778.53;5012383;28;20613;-72
2024/02/28 05:55:24;;;;;;;29.45;27.40;;;;;;;1.73;100.00;101781.09;5034263;28;20058;-71
2024/02/28 05:57:51;;;;;;;31.35;29.40;;;;;;;1.83;100.00;101784.63;5018277;28;20060;-71
2024/02/28 06:00:18;;;;;;;31.83;29.83;;;;;;;2.01;100.00;101783.16;5029565;28;20061;-72
2024/02/28 06:02:45;;;;;;;31.02;29.02;;;;;;;2.05;100.00;101786.34;5026612;28;20045;-72
2024/02/28 06:05:13;;;;;;;40.00;37.50;;;;;;;1.98;100.00;101800.94;5024472;28;20065;-72
2024/02/28 06:07:42;;;;;;;43.20;39.90;;;;;;;1.94;100.00;101796.91;5033217;28;20468;-72
2024/02/28 06:10:10;;;;;;;39.45;36.95;;;;;;;2.04;100.00;101800.44;5030065;28;20436;-72
2024/02/28 06:12:37;;;;;;;38.67;36.22;;;;;;;1.94;100.00;101807.38;5013227;28;20050;-71
2024/02/28 06:15:06;;;;;;;29.52;27.52;;;;;;;2.01;100.00;101800.69;5035807;28;20088;-72
2024/02/28 06:17:32;;;;;;;27.65;25.65;;;;;;;1.92;100.00;101814.53;5025318;28;20052;-72
2024/02/28 06:19:59;;;;;;;29.88;27.17;;;;;;;1.93;100.00;101817.00;5033378;28;20048;-71
2024/02/28 06:22:27;;;;;;;28.45;26.45;;;;;;;2.20;100.00;101818.38;5025857;28;20052;-72
2024/02/28 06:24:55;;;;;;;29.65;27.65;;;;;;;2.42;100.00;101813.06;5016426;28;20053;-71
2024/02/28 06:27:22;;;;;;;29.40;27.50;;;;;;;2.44;100.00;101815.53;5026497;28;20046;-73
2024/02/28 06:29:49;;;;;;;29.58;27.67;;;;;;;2.57;100.00;101816.19;5027376;28;20686;-72
2024/02/28 06:32:16;;;;;;;30.50;28.40;;;;;;;2.82;100.00;101814.16;5019832;28;20927;-71
2024/02/28 06:34:43;;;;;;;32.95;30.75;;;;;;;3.41;100.00;101831.88;5025484;28;20080;-72
2024/02/28 06:37:13;;;;;;;32.35;30.20;;;;;;;3.57;100.00;101820.88;5028952;28;20064;-72
2024/02/28 06:39:40;;;;;;;33.25;30.98;;;;;;;3.19;100.00;101831.09;5029239;28;20440;-71
2024/02/28 06:42:08;;;;;;;33.50;31.30;;;;;;;3.25;100.00;101823.66;5024695;28;20054;-71
2024/02/28 06:44:35;;;;;;;32.95;30.85;;;;;;;3.54;100.00;101827.25;5027272;28;20100;-71
2024/02/28 06:47:02;;;;;;;31.20;29.10;;;;;;;3.50;100.00;101825.81;5033079;28;20169;-71
2024/02/28 06:49:29;;;;;;;34.85;32.65;;;;;;;3.85;100.00;101825.41;5036001;28;20053;-71
2024/02/28 06:51:59;;;;;;;32.00;30.10;;;;;;;3.42;100.00;101837.00;5033843;28;20647;-72
2024/02/28 06:54:26;;;;;;;34.10;32.00;;;;;;;3.89;100.00;101836.47;5021550;28;20053;-71
2024/02/28 06:56:55;;;;;;;36.25;33.95;;;;;;;3.82;100.00;101837.97;5024443;28;20595;-71
2024/02/28 06:59:23;;;;;;;35.97;33.58;;;;;;;4.16;100.00;101840.25;5021883;28;20368;-71
2024/02/28 07:01:50;;;;;;;39.47;37.08;;;;;;;4.35;100.00;101833.19;5027245;28;20795;-71
2024/02/28 07:04:17;;;;;;;37.33;35.13;;;;;;;4.47;100.00;101833.06;5023287;28;20162;-71
2024/02/28 07:06:44;;;;;;;35.10;32.80;;;;;;;4.46;100.00;101834.88;5023223;28;20045;-71
2024/02/28 07:09:15;;;;;;;38.60;36.20;;;;;;;4.76;100.00;101835.69;5015928;28;20054;-71
2024/02/28 07:11:42;;;;;;;38.45;35.97;;;;;;;4.65;100.00;101841.09;5022158;28;20482;-71
2024/02/28 07:14:12;;;;;;;38.70;36.30;;;;;;;5.36;100.00;101835.41;5016275;28;20342;-71
2024/02/28 07:16:40;;;;;;;48.47;45.38;;;;;;;5.18;100.00;101833.53;5028905;28;20057;-71
2024/02/28 07:19:07;;;;;;;49.15;46.15;;;;;;;5.69;100.00;101840.13;5023997;28;20057;-71
2024/02/28 07:21:34;;;;;;;47.78;44.78;;;;;;;6.58;100.00;101828.84;5027895;28;20059;-71
2024/02/28 07:24:02;;;;;;;48.88;46.08;;;;;;;6.96;100.00;101833.91;5029279;28;20755;-71
2024/02/28 07:26:29;;;;;;;46.53;43.72;;;;;;;6.93;100.00;101828.94;5026802;28;20085;-71
2024/02/28 07:28:56;;;;;;;43.38;40.78;;;;;;;6.04;100.00;101833.28;5028195;28;20049;-71
2024/02/28 07:31:23;;;;;;;39.35;36.95;;;;;;;7.91;100.00;101826.78;5018415;28;20049;-69
2024/02/28 07:33:51;;;;;;;37.08;34.67;;;;;;;7.77;100.00;101821.09;5028525;28;20052;-71
2024/02/28 07:36:18;;;;;;;34.15;31.95;;;;;;;7.62;100.00;101821.88;5020834;28;20721;-71
2024/02/28 07:38:45;;;;;;;36.33;34.03;;;;;;;7.43;100.00;101818.50;5026382;28;20053;-71
2024/02/28 07:41:12;;;;;;;44.42;41.92;;;;;;;7.92;100.00;101815.19;5021375;28;20748;-71
2024/02/28 07:43:43;;;;;;;44.97;42.47;;;;;;;8.54;100.00;101817.47;5019609;28;20054;-71
2024/02/28 07:46:11;;;;;;;42.33;39.92;;;;;;;8.83;100.00;101816.94;5019680;28;20053;-71
2024/02/28 07:48:38;;;;;;;37.05;34.95;;;;;;;9.06;100.00;101814.44;5025771;28;20064;-71
2024/02/28 07:51:07;;;;;;;37.10;35.10;;;;;;;9.39;100.00;101812.50;5019303;28;20053;-71
2024/02/28 07:53:34;;;;;;;37.95;35.75;;;;;;;9.53;100.00;101805.66;5019456;28;20049;-71
2024/02/28 07:56:01;;;;;;;38.78;36.42;;;;;;;10.29;100.00;101799.59;5027768;28;20217;-73
2024/02/28 07:58:28;;;;;;;36.65;34.45;;;;;;;10.17;100.00;101800.16;5019778;28;20058;-72
2024/02/28 08:00:55;;;;;;;34.42;32.53;;;;;;;10.59;100.00;101797.03;5032419;28;20057;-72
2024/02/28 08:03:22;;;;;;;33.30;31.50;;;;;;;9.43;100.00;101805.84;5023305;28;20050;-72
2024/02/28 08:05:49;;;;;;;31.52;29.67;;;;;;;10.32;100.00;101795.78;5026941;28;20067;-72
2024/02/28 08:08:17;;;;;;;31.52;29.73;;;;;;;10.60;100.00;101804.00;5022722;28;20652;-72
2024/02/28 08:10:46;;;;;;;43.30;41.10;;;;;;;10.95;100.00;101799.84;5028870;28;20056;-72
2024/02/28 08:13:13;;;;;;;43.60;41.30;;;;;;;10.03;100.00;101804.41;5027621;28;20041;-72
2024/02/28 08:15:42;;;;;;;43.25;41.05;;;;;;;10.89;100.00;101792.63;5023726;28;20053;-72
2024/02/28 08:18:13;;;;;;;43.90;41.55;;;;;;;12.28;100.00;101790.00;5022433;28;20048;-71
2024/02/28 08:20:40;;;;;;;26.63;25.13;;;;;;;10.71;100.00;101789.44;5026355;28;20049;-71
2024/02/28 08:23:07;;;;;;;27.15;25.65;;;;;;;10.92;100.00;101786.94;5022502;28;20074;-71
2024/02/28 08:25:35;;;;;;;28.35;26.55;;;;;;;12.01;100.00;101800.41;5040585;28;20076;-71
2024/02/28 08:28:03;;;;;;;30.65;28.85;;;;;;;12.68;100.00;101792.97;5020659;28;20056;-72
2024/02/28 08:30:30;;;;;;;30.38;28.58;;;;;;;12.17;100.00;101802.00;5025640;28;20242;-71
2024/02/28 08:32:57;;;;;;;29.98;27.70;;;;;;;12.75;100.00;101793.88;5022968;28;20061;-71
2024/02/28 08:35:24;;;;;;;30.20;28.27;;;;;;;12.78;100.00;101790.81;5018720;28;20816;-71
2024/02/28 08:37:51;;;;;;;43.85;41.17;;;;;;;12.90;100.00;101799.13;5028701;28;20057;-72
2024/02/28 08:40:19;;;;;;;42.88;40.38;;;;;;;12.54;100.00;101797.41;5029193;28;20127;-71
2024/02/28 08:42:49;;;;;;;43.03;40.63;;;;;;;13.32;100.00;101800.00;5021358;28;20337;-72
2024/02/28 08:45:16;;;;;;;28.45;26.75;;;;;;;13.02;100.00;101797.53;5041271;28;20099;-72
2024/02/28 08:47:44;;;;;;;29.67;27.88;;;;;;;13.42;100.00;101803.13;5035604;28;20061;-73
2024/02/28 08:50:11;;;;;;;31.27;29.27;;;;;;;13.32;100.00;101800.00;5033043;28;20159;-71
2024/02/28 08:52:38;;;;;;;28.25;26.75;;;;;;;13.11;100.00;101796.38;5016101;28;20565;-72
2024/02/28 08:55:05;;;;;;;35.08;32.72;;;;;;;12.38;100.00;101801.97;5035001;28;20057;-72
2024/02/28 08:57:34;;;;;;;28.42;26.35;;;;;;;12.03;100.00;101800.19;5018225;28;20056;-72
2024/02/28 09:00:02;;;;;;;28.30;26.30;;;;;;;12.46;100.00;101792.19;5029666;28;20056;-72
2024/02/28 09:02:29;;;;;;;43.20;40.97;;;;;;;13.02;100.00;101794.88;5027149;28;20750;-71
2024/02/28 09:04:56;;;;;;;49.00;46.50;;;;;;;13.11;100.00;101800.88;5019916;28;20045;-71
2024/02/28 09:07:23;;;;;;;44.67;42.28;;;;;;;12.57;100.00;101797.00;5020710;28;20053;-72
2024/02/28 09:09:50;;;;;;;43.15;40.85;;;;;;;14.34;100.00;101799.91;5022158;28;20131;-72
2024/02/28 09:12:17;;;;;;;28.60;26.90;;;;;;;13.25;100.00;101806.13;5025280;28;20072;-74
2024/02/28 09:14:45;;;;;;;29.08;27.27;;;;;;;13.80;100.00;101792.81;5030273;28;20053;-72
2024/02/28 09:17:13;;;;;;;32.90;31.10;;;;;;;13.81;100.00;101798.97;5026951;28;20511;-72
2024/02/28 09:19:40;;;;;;;30.88;29.08;;;;;;;14.46;100.00;101801.94;5029713;28;20051;-71
2024/02/28 09:22:07;;;;;;;31.88;29.98;;;;;;;14.39;100.00;101808.09;5029803;28;20053;-71
2024/02/28 09:24:36;;;;;;;35.85;33.75;;;;;;;13.62;100.00;101808.56;5031891;28;20683;-72
2024/02/28 09:27:03;;;;;;;32.38;30.48;;;;;;;13.88;100.00;101805.97;5030757;28;20050;-72
2024/02/28 09:29:30;;;;;;;33.45;31.55;;;;;;;14.31;100.00;101812.81;5023240;28;20531;-71
2024/02/28 09:31:56;;;;;;;44.30;41.90;;;;;;;14.10;100.00;101820.00;5035329;28;20045;-71
2024/02/28 09:34:25;;;;;;;50.88;47.95;;;;;;;14.59;100.00;101821.53;5029520;28;20068;-71
2024/02/28 09:36:52;;;;;;;47.45;44.85;;;;;;;14.37;100.00;101826.22;5026867;28;20068;-71
2024/02/28 09:39:19;;;;;;;29.60;27.80;;;;;;;15.33;100.00;101809.66;5028437;28;20048;-71
2024/02/28 09:41:50;;;;;;;31.90;30.00;;;;;;;15.48;100.00;101816.63;5024034;28;20057;-72
2024/02/28 09:44:17;;;;;;;48.35;45.78;;;;;;;15.16;100.00;101811.19;5037246;28;20722;-72
2024/02/28 09:46:45;;;;;;;50.17;47.47;;;;;;;15.59;100.00;101810.63;5025992;28;20053;-72
2024/02/28 09:49:13;;;;;;;50.47;47.88;;;;;;;17.04;100.00;101802.59;5028599;28;20461;-72
2024/02/28 09:51:42;;;;;;;50.10;47.45;;;;;;;16.52;100.00;101802.03;5022395;28;20061;-72
2024/02/28 09:54:09;;;;;;;51.58;48.78;;;;;;;17.02;100.00;101796.63;5022197;28;20738;-73
2024/02/28 09:56:36;;;;;;;52.20;49.50;;;;;;;17.45;100.00;101787.69;5022886;28;20048;-72
2024/02/28 09:59:04;;;;;;;41.75;39.42;;;;;;;18.06;100.00;101792.06;5023750;28;20628;-72
2024/02/28 10:01:33;;;;;;;37.33;35.13;;;;;;;17.53;100.00;101786.56;5037977;28;20447;-72
2024/02/28 10:04:02;;;;;;;39.53;37.13;;;;;;;17.56;100.00;101784.22;5030854;28;20814;-72
2024/02/28 10:06:30;;;;;;;49.67;46.92;;;;;;;16.97;100.00;101780.38;5032837;28;20135;-72
2024/02/28 10:08:58;;;;;;;52.38;49.38;;;;;;;16.47;100.00;101781.22;5027493;28;20059;-72
2024/02/28 10:11:26;;;;;;;51.90;49.00;;;;;;;18.01;100.00;101778.47;5028495;28;20579;-73
2024/02/28 10:13:55;;;;;;;56.05;52.75;;;;;;;17.96;100.00;101772.97;5030197;28;20053;-73
2024/02/28 10:16:22;;;;;;;58.65;55.35;;;;;;;17.76;100.00;101780.44;5023047;28;20090;-72
2024/02/28 10:18:48;;;;;;;61.97;58.67;;;;;;;17.95;100.00;101765.97;5035778;28;20075;-72
2024/02/28 10:21:17;;;;;;;59.88;56.38;;;;;;;17.71;100.00;101765.03;5027371;28;20053;-71
2024/02/28 10:23:45;;;;;;;56.97;53.88;;;;;;;17.73;100.00;101768.31;5021599;28;20045;-71
2024/02/28 10:26:13;;;;;;;61.70;58.50;;;;;;;18.04;100.00;101756.50;5021762;28;20053;-73
2024/02/28 10:28:43;;;;;;;70.75;67.15;;;;;;;18.41;100.00;101763.59;5026466;28;20057;-72
2024/02/28 10:31:13;;;;;;;51.00;48.22;;;;;;;19.04;100.00;101754.00;5008120;28;20054;-72
2024/02/28 10:33:44;;;;;;;53.60;50.70;;;;;;;17.72;100.00;101755.09;5028004;28;20081;-72
2024/02/28 10:36:11;;;;;;;57.88;54.88;;;;;;;18.52;100.00;101744.75;5011838;28;20061;-71
2024/02/28 10:38:38;;;;;;;69.45;65.85;;;;;;;19.44;100.00;101741.34;5031338;28;20226;-72
2024/02/28 10:41:06;;;;;;;65.57;62.17;;;;;;;19.26;100.00;101735.31;5030642;28;20060;-72
2024/02/28 10:43:35;;;;;;;58.08;53.45;;;;;;;19.14;100.00;101735.34;5019188;28;20477;-73
2024/02/28 10:46:02;;;;;;;58.72;55.63;;;;;;;20.20;100.00;101727.59;5038369;28;20053;-72
2024/02/28 10:48:29;;;;;;;74.38;70.47;;;;;;;19.53;100.00;101735.56;5035306;28;20583;-72
2024/02/28 10:50:56;;;;;;;64.70;60.83;;;;;;;19.66;100.00;101725.34;5022537;28;20053;-72
2024/02/28 10:53:30;;;;;;;62.03;58.67;;;;;;;18.60;100.00;101716.69;5018255;28;20476;-72
2024/02/28 10:56:03;;;;;;;57.75;54.55;;;;;;;18.47;100.00;101722.31;5027853;28;20128;-71
2024/02/28 10:58:37;;;;;;;58.45;55.15;;;;;;;18.67;100.00;101714.69;5025538;28;20057;-72
2024/02/28 11:01:05;;;;;;;55.42;52.42;;;;;;;18.89;100.00;101709.53;5036045;28;20057;-74
2024/02/28 11:03:32;;;;;;;64.88;61.47;;;;;;;18.37;100.00;101705.94;5019120;28;20402;-72
2024/02/28 11:05:59;;;;;;;61.97;58.67;;;;;;;19.71;100.00;101708.44;5026596;28;20452;-75
2024/02/28 11:08:27;;;;;;;55.80;52.70;;;;;;;18.85;100.00;101700.31;5026615;28;20064;-73